Admiral Hornblower — WSQ7555 — position and weather

sailwx.info

Track history (hours):
 
Tides and Currents Weather Stations Pressure Air Temp Water Temp Dewpoint Dewpoint Depression Visibility Wind Speed Wind Dir Waves Ship Positions

Admiral Hornblower

Owner: Hornblower Cruises and Events, San Diego, CA. More information available from US FCC via Universal Licensing System and Coast Guard Vessel Documentation Center.

Last reported at 2017-Nov-19 23:52 UTC. Time now 2017-Nov-21 13:33 UTC.
Position N 32°43' W 117°12'.

Length 46 m; draft 1.8 m.

Type: Passenger vessel. MMSI: 366970120.

Date/timePositionNaut miles runAvg speedWind from/ knotsBaromVisibWave heightAir tempDewpointWater temp
2017-Nov-19 23:52N 32°43' W 117°12'0 0.1
2017-Nov-19 21:20N 32°43' W 117°13'1 3.3
2017-Nov-19 21:00N 32°42' W 117°14'  
2017-Nov-16 20:02N 32°42' W 117°09'0 0.0
2017-Nov-15 00:31N 32°42' W 117°10'011.6
2017-Nov-15 00:29N 32°42' W 117°10'1 2.4
2017-Nov-15 00:00N 32°43' W 117°11'1 1.6
2017-Nov-14 23:18N 32°43' W 117°12'1 2.0
2017-Nov-14 22:42N 32°43' W 117°10'2 1.7
2017-Nov-14 21:14N 32°42' W 117°13'2 3.4
2017-Nov-14 20:47N 32°43' W 117°12'1 2.2
2017-Nov-14 20:13N 32°43' W 117°11'2 8.7
2017-Nov-14 19:57N 32°41' W 117°09'4 0.2
2017-Nov-14 04:15N 32°43' W 117°13'2 0.3
2017-Nov-13 21:51N 32°43' W 117°11'1 0.1
2017-Nov-13 00:37N 32°42' W 117°10'1 6.5
2017-Nov-13 00:30N 32°41' W 117°09'2 2.2
2017-Nov-12 23:48N 32°42' W 117°10'1 0.3
2017-Nov-12 21:48N 32°43' W 117°11'3 4.3
2017-Nov-12 21:06N 32°42' W 117°14'3 7.0
2017-Nov-12 20:40N 32°43' W 117°11'0 0.1
2017-Nov-12 16:56N 32°43' W 117°10'0 0.0
2017-Nov-12 16:19N 32°43' W 117°10'3 0.1
2017-Nov-10 21:11N 32°42' W 117°14'  
Track history (hours):
 
Tides and Currents Weather Stations Pressure Air Temp Water Temp Dewpoint Dewpoint Depression Visibility Wind Speed Wind Dir Waves Ship Positions

Admiral Hornblower

Owner: Hornblower Cruises and Events, San Diego, CA. More information available from US FCC via Universal Licensing System and Coast Guard Vessel Documentation Center.

Last reported at 2017-Nov-19 23:52 UTC. Time now 2017-Nov-21 13:33 UTC.
Position N 32°43' W 117°12'.

Length 46 m; draft 1.8 m.

Type: Passenger vessel. MMSI: 366970120.

Date/timePositionNaut miles runAvg speedWind from/ knotsBaromVisibWave heightAir tempDewpointWater temp
2017-Nov-19 23:52N 32°43' W 117°12'0 0.1
2017-Nov-19 21:20N 32°43' W 117°13'1 3.3
2017-Nov-19 21:00N 32°42' W 117°14'  
2017-Nov-16 20:02N 32°42' W 117°09'0 0.0
2017-Nov-15 00:31N 32°42' W 117°10'011.6
2017-Nov-15 00:29N 32°42' W 117°10'1 2.4
2017-Nov-15 00:00N 32°43' W 117°11'1 1.6
2017-Nov-14 23:18N 32°43' W 117°12'1 2.0
2017-Nov-14 22:42N 32°43' W 117°10'2 1.7
2017-Nov-14 21:14N 32°42' W 117°13'2 3.4
2017-Nov-14 20:47N 32°43' W 117°12'1 2.2
2017-Nov-14 20:13N 32°43' W 117°11'2 8.7
2017-Nov-14 19:57N 32°41' W 117°09'4 0.2
2017-Nov-14 04:15N 32°43' W 117°13'2 0.3
2017-Nov-13 21:51N 32°43' W 117°11'1 0.1
2017-Nov-13 00:37N 32°42' W 117°10'1 6.5
2017-Nov-13 00:30N 32°41' W 117°09'2 2.2
2017-Nov-12 23:48N 32°42' W 117°10'1 0.3
2017-Nov-12 21:48N 32°43' W 117°11'3 4.3
2017-Nov-12 21:06N 32°42' W 117°14'3 7.0
2017-Nov-12 20:40N 32°43' W 117°11'0 0.1
2017-Nov-12 16:56N 32°43' W 117°10'0 0.0
2017-Nov-12 16:19N 32°43' W 117°10'3 0.1
2017-Nov-10 21:11N 32°42' W 117°14'  

Dump ship's entire track history